createdAt,value
2017-01-11T00:00:43.731Z,-93
2017-01-11T00:01:43.793Z,-94
2017-01-11T00:02:43.625Z,-93
2017-01-11T00:03:43.714Z,-93
2017-01-11T00:04:43.680Z,-94
2017-01-11T00:05:43.690Z,-93
2017-01-11T00:06:43.636Z,-94
2017-01-11T00:07:43.847Z,-93
2017-01-11T00:08:43.752Z,-94
2017-01-11T00:09:43.715Z,-93
2017-01-11T00:10:43.819Z,-93
2017-01-11T00:11:43.758Z,-93
2017-01-11T00:12:43.757Z,-93
2017-01-11T00:13:43.875Z,-93
2017-01-11T00:14:43.908Z,-93
2017-01-11T00:15:43.734Z,-93
2017-01-11T00:16:43.847Z,-93
2017-01-11T00:17:44.315Z,-93
2017-01-11T00:18:43.741Z,-93
2017-01-11T00:19:43.829Z,-93
2017-01-11T00:20:43.868Z,-93
2017-01-11T00:21:43.797Z,-94
2017-01-11T00:22:43.654Z,-93
2017-01-11T00:23:43.785Z,-93
2017-01-11T00:24:43.679Z,-94
2017-01-11T00:25:43.786Z,-93
2017-01-11T00:26:43.782Z,-93
2017-01-11T00:27:43.864Z,-94
2017-01-11T00:28:43.732Z,-93
2017-01-11T00:29:43.844Z,-94
2017-01-11T00:30:43.730Z,-94
2017-01-11T00:31:43.667Z,-94
2017-01-11T00:32:43.814Z,-93
2017-01-11T00:33:43.801Z,-93
2017-01-11T00:34:43.768Z,-93
2017-01-11T00:35:43.847Z,-93
2017-01-11T00:36:43.738Z,-93
2017-01-11T00:37:43.819Z,-93
2017-01-11T00:38:43.760Z,-93
2017-01-11T00:39:43.820Z,-94
2017-01-11T00:40:43.763Z,-93
2017-01-11T00:41:43.825Z,-94
2017-01-11T00:42:43.704Z,-93
2017-01-11T00:43:43.816Z,-93
2017-01-11T00:44:43.798Z,-93
2017-01-11T00:45:43.913Z,-93
2017-01-11T00:46:43.829Z,-92
2017-01-11T00:47:43.825Z,-92
2017-01-11T00:48:43.708Z,-93
2017-01-11T00:49:43.916Z,-93
2017-01-11T00:50:43.856Z,-93
2017-01-11T00:51:43.833Z,-93
2017-01-11T00:52:43.810Z,-93
2017-01-11T00:53:43.974Z,-92
2017-01-11T00:54:43.921Z,-93
2017-01-11T00:55:43.833Z,-93
2017-01-11T00:56:43.904Z,-93
2017-01-11T00:57:43.822Z,-93
2017-01-11T00:58:43.798Z,-93
2017-01-11T00:59:43.803Z,-93
2017-01-11T01:00:43.901Z,-93
2017-01-11T01:01:44.051Z,-93
2017-01-11T01:02:43.822Z,-93
2017-01-11T01:03:43.901Z,-93
2017-01-11T01:04:43.877Z,-93
2017-01-11T01:05:43.927Z,-93
2017-01-11T01:06:43.771Z,-93
2017-01-11T01:07:43.906Z,-93
2017-01-11T01:08:43.885Z,-93
2017-01-11T01:09:43.892Z,-93
2017-01-11T01:10:43.831Z,-93
2017-01-11T01:11:43.824Z,-93
2017-01-11T01:12:43.951Z,-93
2017-01-11T01:13:43.833Z,-93
2017-01-11T01:14:43.875Z,-93
2017-01-11T01:15:43.864Z,-94
2017-01-11T01:16:43.978Z,-93
2017-01-11T01:17:44.186Z,-93
2017-01-11T01:18:43.851Z,-93
2017-01-11T01:19:43.887Z,-93
2017-01-11T01:20:43.796Z,-93
2017-01-11T01:21:43.989Z,-93
2017-01-11T01:22:43.955Z,-93
2017-01-11T01:23:43.890Z,-93
2017-01-11T01:24:43.949Z,-93
2017-01-11T01:25:44.017Z,-94
2017-01-11T01:26:43.798Z,-93
2017-01-11T01:27:43.799Z,-93
2017-01-11T01:28:43.960Z,-94
2017-01-11T01:29:43.826Z,-93
2017-01-11T01:30:43.869Z,-93
2017-01-11T01:31:43.824Z,-93
2017-01-11T01:32:44.140Z,-93
2017-01-11T01:33:43.924Z,-94
2017-01-11T01:34:43.882Z,-93
2017-01-11T01:35:43.974Z,-93
2017-01-11T01:36:43.875Z,-94
2017-01-11T01:37:43.893Z,-93
2017-01-11T01:38:43.981Z,-93
2017-01-11T01:39:43.859Z,-93
2017-01-11T01:40:43.826Z,-93
2017-01-11T01:41:43.901Z,-93
2017-01-11T01:42:43.919Z,-93
2017-01-11T01:43:43.925Z,-93
2017-01-11T01:44:43.926Z,-93
2017-01-11T01:45:43.924Z,-93
2017-01-11T01:46:43.918Z,-93
2017-01-11T01:47:44.065Z,-93
2017-01-11T01:48:44.118Z,-93
2017-01-11T01:49:43.972Z,-94
2017-01-11T01:50:43.884Z,-93
2017-01-11T01:51:43.969Z,-93
2017-01-11T01:52:43.970Z,-93
2017-01-11T01:53:44.005Z,-94
2017-01-11T01:54:44.046Z,-94
2017-01-11T01:55:44.009Z,-93
2017-01-11T01:56:43.956Z,-93
2017-01-11T01:57:43.957Z,-93
2017-01-11T01:58:44.007Z,-93
2017-01-11T01:59:43.936Z,-93
2017-01-11T02:00:44.029Z,-93
2017-01-11T02:01:44.009Z,-93
2017-01-11T02:02:43.924Z,-93
2017-01-11T02:03:43.938Z,-93
2017-01-11T02:04:44.059Z,-93
2017-01-11T02:05:44.062Z,-94
2017-01-11T02:06:44.126Z,-93
2017-01-11T02:07:44.009Z,-93
2017-01-11T02:08:43.904Z,-93
2017-01-11T02:09:43.953Z,-93
2017-01-11T02:10:44.250Z,-93
2017-01-11T02:11:43.946Z,-93
2017-01-11T02:12:43.963Z,-93
2017-01-11T02:13:43.986Z,-93
2017-01-11T02:14:44.032Z,-93
2017-01-11T02:15:44.037Z,-94
2017-01-11T02:16:44.119Z,-93
2017-01-11T02:17:44.004Z,-94
2017-01-11T02:18:44.109Z,-93
2017-01-11T02:19:44.100Z,-93
2017-01-11T02:20:44.099Z,-93
2017-01-11T02:21:44.004Z,-93
2017-01-11T02:22:44.045Z,-94
2017-01-11T02:23:44.064Z,-93
2017-01-11T02:24:43.928Z,-93
2017-01-11T02:25:44.108Z,-93
2017-01-11T02:26:44.124Z,-93
2017-01-11T02:27:44.060Z,-94
2017-01-11T02:28:44.067Z,-93
2017-01-11T02:29:44.025Z,-93
2017-01-11T02:30:44.124Z,-94
2017-01-11T02:31:44.038Z,-93
2017-01-11T02:32:44.097Z,-93
2017-01-11T02:33:43.951Z,-93
2017-01-11T02:34:44.068Z,-93
2017-01-11T02:35:44.107Z,-93
2017-01-11T02:36:43.993Z,-93
2017-01-11T02:37:44.949Z,-93
2017-01-11T02:38:44.147Z,-93
2017-01-11T02:39:43.971Z,-93
2017-01-11T02:40:44.090Z,-94
2017-01-11T02:41:44.082Z,-93
2017-01-11T02:42:44.042Z,-94
2017-01-11T02:43:44.051Z,-94
2017-01-11T02:44:44.105Z,-94
2017-01-11T02:45:44.028Z,-93
2017-01-11T02:46:44.020Z,-93
2017-01-11T02:47:44.057Z,-93
2017-01-11T02:48:44.205Z,-93
2017-01-11T02:49:44.048Z,-94
2017-01-11T02:50:44.154Z,-93
2017-01-11T02:51:44.100Z,-93
2017-01-11T02:52:44.059Z,-94
2017-01-11T02:53:44.099Z,-93
2017-01-11T02:54:44.151Z,-93
2017-01-11T02:55:44.099Z,-93
2017-01-11T02:56:44.113Z,-93
2017-01-11T02:57:44.134Z,-92
2017-01-11T02:58:44.006Z,-93
2017-01-11T02:59:44.134Z,-93
2017-01-11T03:00:44.035Z,-93
2017-01-11T03:01:44.125Z,-93
2017-01-11T03:02:44.130Z,-92
2017-01-11T03:03:44.135Z,-93
2017-01-11T03:04:44.162Z,-93
2017-01-11T03:05:44.151Z,-92
2017-01-11T03:06:44.019Z,-93
2017-01-11T03:07:44.136Z,-93
2017-01-11T03:08:44.126Z,-92
2017-01-11T03:09:44.166Z,-93
2017-01-11T03:10:44.094Z,-93
2017-01-11T03:11:44.214Z,-93
2017-01-11T03:12:44.027Z,-93
2017-01-11T03:13:44.163Z,-93
2017-01-11T03:14:44.102Z,-93
2017-01-11T03:15:44.208Z,-92
2017-01-11T03:16:44.100Z,-92
2017-01-11T03:17:44.152Z,-92
2017-01-11T03:18:44.135Z,-93
2017-01-11T03:19:44.111Z,-93
2017-01-11T03:20:44.290Z,-93
2017-01-11T03:21:44.240Z,-92
2017-01-11T03:22:44.120Z,-93
2017-01-11T03:23:44.131Z,-92
2017-01-11T03:24:44.115Z,-93
2017-01-11T03:25:44.204Z,-93
2017-01-11T03:26:44.242Z,-93
2017-01-11T03:27:44.128Z,-93
2017-01-11T03:28:44.288Z,-92
2017-01-11T03:29:44.181Z,-92
2017-01-11T03:30:44.119Z,-93
2017-01-11T03:31:44.202Z,-93
2017-01-11T03:32:44.134Z,-94
2017-01-11T03:33:44.183Z,-93
2017-01-11T03:34:44.223Z,-93
2017-01-11T03:35:44.085Z,-93
2017-01-11T03:36:44.180Z,-93
2017-01-11T03:37:44.085Z,-94
2017-01-11T03:38:44.281Z,-94
2017-01-11T03:39:44.102Z,-94
2017-01-11T03:40:44.221Z,-93
2017-01-11T03:41:44.239Z,-93
2017-01-11T03:42:44.287Z,-93
2017-01-11T03:43:44.155Z,-93
2017-01-11T03:44:44.215Z,-93
2017-01-11T03:45:44.212Z,-94
2017-01-11T03:46:44.323Z,-93
2017-01-11T03:47:44.172Z,-92
2017-01-11T03:48:44.114Z,-93
2017-01-11T03:49:44.258Z,-92
2017-01-11T03:50:44.186Z,-92
2017-01-11T03:51:44.334Z,-92
2017-01-11T03:52:44.315Z,-92
2017-01-11T03:53:44.262Z,-92
2017-01-11T03:54:44.167Z,-92
2017-01-11T03:55:44.239Z,-92
2017-01-11T03:56:44.199Z,-92
2017-01-11T03:57:44.277Z,-92
2017-01-11T03:58:44.247Z,-92
2017-01-11T03:59:44.373Z,-92
2017-01-11T04:00:44.319Z,-92
2017-01-11T04:01:44.222Z,-92
2017-01-11T04:02:44.204Z,-92
2017-01-11T04:03:44.205Z,-93
2017-01-11T04:04:44.271Z,-93
2017-01-11T04:05:44.201Z,-92
2017-01-11T04:06:44.272Z,-92
2017-01-11T04:07:44.224Z,-92
2017-01-11T04:08:44.189Z,-93
2017-01-11T04:09:44.269Z,-93
2017-01-11T04:10:44.277Z,-93
2017-01-11T04:11:44.226Z,-92
2017-01-11T04:12:44.170Z,-93
2017-01-11T04:13:44.261Z,-93
2017-01-11T04:14:44.228Z,-92
2017-01-11T04:15:44.280Z,-92
2017-01-11T04:16:44.230Z,-92
2017-01-11T04:17:44.346Z,-92
2017-01-11T04:18:44.323Z,-92
2017-01-11T04:19:44.240Z,-92
2017-01-11T04:20:44.197Z,-92
2017-01-11T04:21:44.259Z,-92
2017-01-11T04:22:44.277Z,-92
2017-01-11T04:23:44.368Z,-92
2017-01-11T04:24:44.341Z,-92
2017-01-11T04:25:44.331Z,-92
2017-01-11T04:26:44.323Z,-92
2017-01-11T04:27:44.283Z,-92
2017-01-11T04:28:44.376Z,-92
2017-01-11T04:29:44.405Z,-92
2017-01-11T04:30:44.364Z,-92
2017-01-11T04:31:44.266Z,-92
2017-01-11T04:32:44.199Z,-92
2017-01-11T04:33:44.344Z,-92
2017-01-11T04:34:44.304Z,-92
2017-01-11T04:35:44.280Z,-92
2017-01-11T04:36:44.351Z,-93
2017-01-11T04:37:44.285Z,-92
2017-01-11T04:38:44.291Z,-92
2017-01-11T04:39:44.292Z,-92
2017-01-11T04:40:44.275Z,-92
2017-01-11T04:41:44.358Z,-92
2017-01-11T04:42:44.345Z,-92
2017-01-11T04:43:44.237Z,-92
2017-01-11T04:44:44.324Z,-92
2017-01-11T04:45:44.546Z,-92
2017-01-11T04:46:44.323Z,-92
2017-01-11T04:47:44.399Z,-92
2017-01-11T04:48:44.333Z,-92
2017-01-11T04:49:44.321Z,-92
2017-01-11T04:50:44.381Z,-92
2017-01-11T04:51:44.435Z,-91
2017-01-11T04:52:44.294Z,-92
2017-01-11T04:53:44.482Z,-92
2017-01-11T04:54:44.475Z,-92
2017-01-11T04:55:44.338Z,-92
2017-01-11T04:56:44.422Z,-92
2017-01-11T04:57:44.398Z,-92
2017-01-11T04:58:44.453Z,-92
2017-01-11T04:59:44.336Z,-92
2017-01-11T05:00:44.467Z,-92
2017-01-11T05:01:44.512Z,-92
2017-01-11T05:02:46.584Z,-92
2017-01-11T05:03:44.476Z,-92
2017-01-11T05:04:44.470Z,-93
2017-01-11T05:05:44.415Z,-93
2017-01-11T05:06:44.370Z,-93
2017-01-11T05:07:44.411Z,-92
2017-01-11T05:08:44.485Z,-93
2017-01-11T05:09:44.296Z,-93
2017-01-11T05:10:44.371Z,-93
2017-01-11T05:11:44.295Z,-93
2017-01-11T05:12:44.462Z,-93
2017-01-11T05:13:44.422Z,-92
2017-01-11T05:14:44.418Z,-93
2017-01-11T05:15:44.771Z,-92
2017-01-11T05:16:44.320Z,-92
2017-01-11T05:17:44.546Z,-93
2017-01-11T05:18:44.361Z,-92
2017-01-11T05:19:44.395Z,-93
2017-01-11T05:20:44.366Z,-92
2017-01-11T05:21:44.446Z,-93
2017-01-11T05:22:44.400Z,-92
2017-01-11T05:23:44.383Z,-93
2017-01-11T05:24:44.579Z,-93
2017-01-11T05:25:44.469Z,-93
2017-01-11T05:26:44.461Z,-92
2017-01-11T05:27:44.391Z,-92
2017-01-11T05:28:44.922Z,-93
2017-01-11T05:29:44.375Z,-93
2017-01-11T05:30:44.432Z,-92
2017-01-11T05:31:44.429Z,-93
2017-01-11T05:32:44.537Z,-93
2017-01-11T05:33:44.507Z,-93
2017-01-11T05:34:44.478Z,-92
2017-01-11T05:35:44.359Z,-93
2017-01-11T05:36:44.356Z,-93
2017-01-11T05:37:44.502Z,-92
2017-01-11T05:38:44.447Z,-93
2017-01-11T05:39:44.502Z,-93
2017-01-11T05:40:44.372Z,-92
2017-01-11T05:41:44.514Z,-92
2017-01-11T05:42:44.691Z,-93
2017-01-11T05:43:44.376Z,-93
2017-01-11T05:44:44.637Z,-93
2017-01-11T05:45:44.582Z,-92
2017-01-11T05:46:44.552Z,-93
2017-01-11T05:47:44.491Z,-92
2017-01-11T05:48:44.519Z,-91
2017-01-11T05:49:44.479Z,-92
2017-01-11T05:50:44.476Z,-93
2017-01-11T05:51:44.430Z,-94
2017-01-11T05:52:44.461Z,-93
2017-01-11T05:53:44.524Z,-93
2017-01-11T05:54:44.404Z,-93
2017-01-11T05:55:44.462Z,-93
2017-01-11T05:56:44.590Z,-93
2017-01-11T05:57:44.466Z,-93
2017-01-11T05:58:44.556Z,-95
2017-01-11T05:59:44.478Z,-93
2017-01-11T06:00:44.583Z,-93
2017-01-11T06:01:44.546Z,-93
2017-01-11T06:02:44.533Z,-94
2017-01-11T06:03:44.539Z,-93
2017-01-11T06:04:44.471Z,-93
2017-01-11T06:05:44.592Z,-93
2017-01-11T06:06:44.497Z,-93
2017-01-11T06:07:44.472Z,-92
2017-01-11T06:08:44.571Z,-93
2017-01-11T06:09:44.488Z,-92
2017-01-11T06:10:44.560Z,-92
2017-01-11T06:11:44.496Z,-93
2017-01-11T06:12:44.491Z,-93
2017-01-11T06:13:44.549Z,-92
2017-01-11T06:14:44.565Z,-93
2017-01-11T06:15:44.574Z,-92
2017-01-11T06:16:44.531Z,-93
2017-01-11T06:17:44.510Z,-92
2017-01-11T06:18:44.499Z,-92
2017-01-11T06:19:44.568Z,-93
2017-01-11T06:20:44.587Z,-93
2017-01-11T06:21:44.598Z,-92
2017-01-11T06:22:44.519Z,-93
2017-01-11T06:23:44.584Z,-92
2017-01-11T06:24:44.581Z,-94
2017-01-11T06:25:44.596Z,-93
2017-01-11T06:26:44.627Z,-93
2017-01-11T06:27:44.577Z,-93
2017-01-11T06:28:44.556Z,-93
2017-01-11T06:29:44.583Z,-93
2017-01-11T06:30:44.477Z,-93
2017-01-11T06:31:44.623Z,-93
2017-01-11T06:32:44.645Z,-93
2017-01-11T06:33:44.502Z,-93
2017-01-11T06:34:44.611Z,-93
2017-01-11T06:35:44.576Z,-93
2017-01-11T06:36:44.552Z,-93
2017-01-11T06:37:46.949Z,-93
2017-01-11T06:38:44.553Z,-93
2017-01-11T06:39:44.617Z,-93
2017-01-11T06:40:44.631Z,-93
2017-01-11T06:41:44.562Z,-93
2017-01-11T06:42:44.703Z,-93
2017-01-11T06:43:44.587Z,-93
2017-01-11T06:44:44.591Z,-93
2017-01-11T06:45:44.581Z,-93
2017-01-11T06:46:44.657Z,-92
2017-01-11T06:47:44.613Z,-93
2017-01-11T06:48:44.849Z,-92
2017-01-11T06:49:44.712Z,-92
2017-01-11T06:50:44.737Z,-94
2017-01-11T06:51:44.581Z,-94
2017-01-11T06:52:44.519Z,-94
2017-01-11T06:53:44.642Z,-93
2017-01-11T06:54:44.833Z,-93
2017-01-11T06:55:44.608Z,-94
2017-01-11T06:56:44.604Z,-92
2017-01-11T06:57:44.708Z,-93
2017-01-11T06:58:44.973Z,-92
2017-01-11T06:59:44.689Z,-92
2017-01-11T07:00:44.588Z,-93
2017-01-11T07:01:44.619Z,-92
2017-01-11T07:02:44.753Z,-92
2017-01-11T07:03:44.666Z,-92
2017-01-11T07:04:44.826Z,-92
2017-01-11T07:05:44.793Z,-92
2017-01-11T07:06:44.740Z,-93
2017-01-11T07:07:44.669Z,-92
2017-01-11T07:08:44.638Z,-93
2017-01-11T07:09:45.915Z,-94
2017-01-11T07:10:44.665Z,-83
2017-01-11T07:11:44.777Z,-83
2017-01-11T07:12:44.710Z,-82
2017-01-11T07:13:44.611Z,-82
2017-01-11T07:14:44.804Z,-83
2017-01-11T07:15:44.724Z,-83
2017-01-11T07:16:44.632Z,-82
2017-01-11T07:17:44.739Z,-82
2017-01-11T07:18:44.831Z,-82
2017-01-11T07:19:44.721Z,-83
2017-01-11T07:20:44.742Z,-84
2017-01-11T07:21:44.836Z,-82
2017-01-11T07:22:44.740Z,-83
2017-01-11T07:23:44.664Z,-82
2017-01-11T07:24:44.832Z,-82
2017-01-11T07:25:45.505Z,-83
2017-01-11T07:26:44.718Z,-82
2017-01-11T07:27:44.724Z,-83
2017-01-11T07:28:44.819Z,-83
2017-01-11T07:29:45.052Z,-82
2017-01-11T07:30:44.745Z,-83
2017-01-11T07:31:45.340Z,-81
2017-01-11T07:32:46.922Z,-82
2017-01-11T07:33:44.811Z,-81
2017-01-11T07:34:44.635Z,-82
2017-01-11T07:35:44.672Z,-81
2017-01-11T07:36:44.670Z,-81
2017-01-11T07:37:44.880Z,-81
2017-01-11T07:38:44.795Z,-82
2017-01-11T07:39:44.875Z,-81
2017-01-11T07:40:44.706Z,-81
2017-01-11T07:41:44.887Z,-81
2017-01-11T07:42:44.712Z,-81
2017-01-11T07:43:44.811Z,-81
2017-01-11T07:44:44.821Z,-82
2017-01-11T07:45:44.763Z,-81
2017-01-11T07:46:44.702Z,-81
2017-01-11T07:47:44.848Z,-81
2017-01-11T07:48:44.835Z,-81
2017-01-11T07:49:44.745Z,-81
2017-01-11T07:50:44.722Z,-81
2017-01-11T07:51:44.736Z,-81
2017-01-11T07:52:44.866Z,-81
2017-01-11T07:53:44.760Z,-81
2017-01-11T07:54:44.759Z,-82
2017-01-11T07:55:44.897Z,-81
2017-01-11T07:56:44.746Z,-82
2017-01-11T07:57:44.789Z,-82
2017-01-11T07:58:44.706Z,-81
2017-01-11T07:59:44.751Z,-81
2017-01-11T08:00:44.760Z,-82
2017-01-11T08:01:44.853Z,-81
2017-01-11T08:02:44.854Z,-81
2017-01-11T08:03:44.839Z,-81
2017-01-11T08:04:44.859Z,-81
2017-01-11T08:05:44.835Z,-81
2017-01-11T08:06:44.945Z,-81
2017-01-11T08:07:44.773Z,-81
2017-01-11T08:08:44.945Z,-81
2017-01-11T08:09:44.859Z,-81
2017-01-11T08:10:44.695Z,-81
2017-01-11T08:11:44.845Z,-81
2017-01-11T08:12:44.779Z,-81
2017-01-11T08:13:44.922Z,-82
2017-01-11T08:14:44.771Z,-82
2017-01-11T08:15:44.863Z,-82
2017-01-11T08:16:44.829Z,-82
2017-01-11T08:17:44.726Z,-82
2017-01-11T08:18:45.493Z,-82
2017-01-11T08:19:44.939Z,-82
2017-01-11T08:20:44.831Z,-82
2017-01-11T08:21:44.907Z,-82
2017-01-11T08:22:45.536Z,-82
2017-01-11T08:23:44.881Z,-82
2017-01-11T08:24:45.358Z,-82
2017-01-11T08:25:44.877Z,-82
2017-01-11T08:26:45.358Z,-81
2017-01-11T08:27:44.917Z,-82
2017-01-11T08:28:44.911Z,-82
2017-01-11T08:29:44.914Z,-82
2017-01-11T08:30:44.868Z,-82
2017-01-11T08:31:44.898Z,-82
2017-01-11T08:32:44.851Z,-82
2017-01-11T08:33:44.817Z,-82
2017-01-11T08:34:44.826Z,-82
2017-01-11T08:35:44.779Z,-82
2017-01-11T08:36:44.873Z,-82
2017-01-11T08:37:44.957Z,-81
2017-01-11T08:38:44.837Z,-82
2017-01-11T08:39:44.983Z,-83
2017-01-11T08:40:44.905Z,-82
2017-01-11T08:41:44.838Z,-82
2017-01-11T08:42:44.898Z,-82
2017-01-11T08:43:45.242Z,-82
2017-01-11T08:44:44.878Z,-82
2017-01-11T08:45:44.792Z,-81
2017-01-11T08:46:44.887Z,-82
2017-01-11T08:47:44.802Z,-81
2017-01-11T08:48:45.102Z,-81
2017-01-11T08:49:45.396Z,-81
2017-01-11T08:50:44.914Z,-80
2017-01-11T08:51:45.016Z,-81
2017-01-11T08:52:44.968Z,-80
2017-01-11T08:53:44.980Z,-79
2017-01-11T08:54:45.573Z,-80
2017-01-11T08:55:44.974Z,-81
2017-01-11T08:56:44.999Z,-81
2017-01-11T08:57:45.064Z,-81
2017-01-11T08:58:44.982Z,-81
2017-01-11T08:59:44.977Z,-80
2017-01-11T09:00:44.938Z,-80
2017-01-11T09:01:45.825Z,-80
2017-01-11T09:02:44.869Z,-80
2017-01-11T09:03:45.044Z,-80
2017-01-11T09:04:44.881Z,-80
2017-01-11T09:05:44.926Z,-80
2017-01-11T09:06:44.948Z,-81
2017-01-11T09:07:44.965Z,-79
2017-01-11T09:08:44.902Z,-80
2017-01-11T09:09:45.009Z,-80
2017-01-11T09:10:45.038Z,-80
2017-01-11T09:11:45.002Z,-79
2017-01-11T09:12:44.906Z,-80
2017-01-11T09:13:44.861Z,-80
2017-01-11T09:14:45.019Z,-80
2017-01-11T09:15:44.965Z,-79
2017-01-11T09:16:44.999Z,-80
2017-01-11T09:17:45.193Z,-81
2017-01-11T09:18:44.964Z,-81
2017-01-11T09:19:44.976Z,-81
2017-01-11T09:20:45.047Z,-82
2017-01-11T09:21:45.044Z,-81
2017-01-11T09:22:45.018Z,-82
2017-01-11T09:23:44.978Z,-82
2017-01-11T09:24:45.062Z,-82
2017-01-11T09:25:44.991Z,-82
2017-01-11T09:26:44.928Z,-81
2017-01-11T09:27:45.021Z,-82
2017-01-11T09:28:45.035Z,-81
2017-01-11T09:29:45.755Z,-82
2017-01-11T09:30:46.060Z,-82
2017-01-11T09:31:45.067Z,-82
2017-01-11T09:32:45.006Z,-82
2017-01-11T09:33:45.073Z,-82
2017-01-11T09:34:44.938Z,-83
2017-01-11T09:35:44.973Z,-82
2017-01-11T09:36:44.924Z,-84
2017-01-11T09:37:45.104Z,-86
2017-01-11T09:38:45.054Z,-87
2017-01-11T09:39:45.053Z,-87
2017-01-11T09:40:44.974Z,-87
2017-01-11T09:41:47.358Z,-89
2017-01-11T09:42:45.060Z,-89
2017-01-11T09:43:44.968Z,-87
2017-01-11T09:44:45.032Z,-90
2017-01-11T09:45:45.740Z,-89
2017-01-11T09:46:45.380Z,-90
2017-01-11T09:47:45.009Z,-89
2017-01-11T09:48:44.920Z,-89
2017-01-11T09:49:45.149Z,-87
2017-01-11T09:50:45.243Z,-89
2017-01-11T09:51:45.068Z,-89
2017-01-11T09:52:45.090Z,-88
2017-01-11T09:53:45.050Z,-90
2017-01-11T09:54:45.005Z,-90
2017-01-11T09:55:45.029Z,-91
2017-01-11T09:56:44.949Z,-90
2017-01-11T09:57:45.428Z,-90
2017-01-11T09:58:44.946Z,-89
2017-01-11T09:59:44.995Z,-90
2017-01-11T10:00:45.310Z,-90
2017-01-11T10:01:45.153Z,-90
2017-01-11T10:02:45.053Z,-90
2017-01-11T10:03:45.037Z,-93
2017-01-11T10:04:45.042Z,-91
2017-01-11T10:05:44.989Z,-91
2017-01-11T10:06:45.079Z,-90
2017-01-11T10:07:45.046Z,-90
2017-01-11T10:08:45.194Z,-90
2017-01-11T10:09:45.199Z,-86
2017-01-11T10:10:45.206Z,-89
2017-01-11T10:11:45.248Z,-90
2017-01-11T10:12:45.238Z,-89
2017-01-11T10:13:45.239Z,-89
2017-01-11T10:14:45.072Z,-89
2017-01-11T10:15:45.176Z,-92
2017-01-11T10:16:45.635Z,-92
2017-01-11T10:17:45.970Z,-94
2017-01-11T10:18:45.089Z,-93
2017-01-11T10:19:45.191Z,-94
2017-01-11T10:20:45.130Z,-93
2017-01-11T10:21:45.181Z,-94
2017-01-11T10:22:45.185Z,-95
2017-01-11T10:23:45.143Z,-95
2017-01-11T10:24:45.203Z,-94
2017-01-11T10:25:45.515Z,-96
2017-01-11T10:26:46.391Z,-96
2017-01-11T10:27:45.319Z,-96
2017-01-11T10:28:46.151Z,-96
2017-01-11T10:29:48.629Z,-96
2017-01-11T10:30:52.344Z,-96
2017-01-11T10:32:12.383Z,-96
2017-01-11T10:41:04.949Z,-94
2017-01-11T10:46:13.253Z,-96
2017-01-11T10:47:07.087Z,-96
2017-01-11T10:47:57.478Z,-96
2017-01-11T10:49:55.146Z,-96
2017-01-11T10:50:04.495Z,-96
2017-01-11T10:51:08.435Z,-96
2017-01-11T10:55:44.190Z,-96
2017-01-11T10:56:33.244Z,-96
2017-01-11T10:57:33.035Z,-96
2017-01-11T10:58:32.167Z,-96
2017-01-11T10:59:32.145Z,-96
2017-01-11T11:00:32.098Z,-96
2017-01-11T11:01:32.172Z,-96
2017-01-11T11:02:32.115Z,-96
2017-01-11T11:03:32.253Z,-96
2017-01-11T11:04:32.068Z,-96
2017-01-11T11:05:32.183Z,-96
2017-01-11T11:06:32.819Z,-96
2017-01-11T11:07:32.261Z,-96
2017-01-11T11:08:32.140Z,-96
2017-01-11T11:09:32.699Z,-96
2017-01-11T11:10:32.685Z,-96
2017-01-11T11:11:32.156Z,-96
2017-01-11T11:12:32.321Z,-96
2017-01-11T11:13:33.024Z,-96
2017-01-11T11:14:32.360Z,-96
2017-01-11T11:15:32.109Z,-96
2017-01-11T11:16:32.142Z,-96
2017-01-11T11:17:33.006Z,-96
2017-01-11T11:18:32.215Z,-96
2017-01-11T11:19:32.450Z,-96
2017-01-11T11:20:32.637Z,-96
2017-01-11T11:21:32.148Z,-96
2017-01-11T11:22:33.076Z,-96
2017-01-11T11:23:32.155Z,-96
2017-01-11T11:24:32.277Z,-96
2017-01-11T11:25:32.240Z,-96
2017-01-11T11:28:48.177Z,-96
2017-01-11T11:30:21.798Z,-96
2017-01-11T11:30:34.595Z,-97
2017-01-11T11:31:46.027Z,-96
2017-01-11T13:03:27.503Z,-96
2017-01-11T13:04:03.346Z,-96
2017-01-11T13:05:07.799Z,-96
2017-01-11T13:06:02.839Z,-96
2017-01-11T13:07:32.051Z,-96
2017-01-11T13:08:03.543Z,-96
2017-01-11T13:09:26.649Z,-96
2017-01-11T13:10:01.374Z,-96
2017-01-11T13:11:06.080Z,-97
2017-01-11T13:11:59.297Z,-96
2017-01-11T13:13:10.935Z,-96
2017-01-11T13:14:02.254Z,-96
2017-01-11T13:19:23.790Z,-96
2017-01-11T13:19:31.734Z,-96
2017-01-11T13:20:31.021Z,-96
2017-01-11T13:21:32.124Z,-96
2017-01-11T13:22:31.683Z,-96
2017-01-11T13:23:36.353Z,-96
2017-01-11T13:24:31.287Z,-96
2017-01-11T13:25:30.885Z,-96
2017-01-11T13:26:30.887Z,-96
2017-01-11T13:27:30.823Z,-96
2017-01-11T13:28:30.947Z,-96
2017-01-11T13:29:31.146Z,-96
2017-01-11T13:30:30.895Z,-96
2017-01-11T13:31:31.477Z,-96
2017-01-11T13:32:39.117Z,-96
2017-01-11T13:37:38.575Z,-96
2017-01-11T13:37:45.725Z,-96
2017-01-11T13:38:45.745Z,-96
2017-01-11T13:39:45.683Z,-96
2017-01-11T13:40:48.120Z,-96
2017-01-11T13:41:45.941Z,-96
2017-01-11T13:42:46.381Z,-96
2017-01-11T13:43:45.622Z,-96
2017-01-11T13:44:45.810Z,-96
2017-01-11T13:45:45.604Z,-96
2017-01-11T13:46:45.757Z,-96
2017-01-11T13:47:45.743Z,-96
2017-01-11T13:48:46.213Z,-96
2017-01-11T13:49:45.708Z,-96
2017-01-11T13:50:45.751Z,-96
2017-01-11T13:51:45.753Z,-96
2017-01-11T13:52:45.688Z,-96
2017-01-11T13:53:45.718Z,-96
2017-01-11T13:54:45.777Z,-96
2017-01-11T13:55:45.525Z,-96
2017-01-11T13:56:45.773Z,-96
2017-01-11T13:57:45.636Z,-96
2017-01-11T13:58:46.229Z,-96
2017-01-11T13:59:45.621Z,-96
2017-01-11T14:00:45.713Z,-96
2017-01-11T14:01:45.733Z,-96
2017-01-11T14:02:45.937Z,-96
2017-01-11T14:03:45.677Z,-96
2017-01-11T14:04:45.709Z,-96
2017-01-11T14:05:46.510Z,-96
2017-01-11T14:06:45.820Z,-96
2017-01-11T14:07:46.492Z,-96
2017-01-11T14:08:45.663Z,-96
2017-01-11T14:09:45.637Z,-96
2017-01-11T14:10:45.589Z,-96
2017-01-11T14:11:46.609Z,-96
2017-01-11T14:12:45.710Z,-96
2017-01-11T14:13:45.682Z,-96
2017-01-11T14:16:29.106Z,-96
2017-01-11T14:16:54.070Z,-96
2017-01-11T14:17:36.502Z,-96
2017-01-11T14:18:36.825Z,-95
2017-01-11T14:19:36.785Z,-96
2017-01-11T14:20:37.051Z,-96
2017-01-11T14:21:37.979Z,-96
2017-01-11T14:22:37.850Z,-96
2017-01-11T14:23:36.102Z,-96
2017-01-11T14:24:36.076Z,-96
2017-01-11T14:25:36.079Z,-96
2017-01-11T14:26:36.210Z,-96
2017-01-11T14:27:36.953Z,-96
2017-01-11T14:28:36.218Z,-96
2017-01-11T14:29:36.320Z,-96
2017-01-11T14:30:36.327Z,-96
2017-01-11T14:31:36.176Z,-96
2017-01-11T14:32:36.187Z,-96
2017-01-11T14:33:36.148Z,-96
2017-01-11T14:34:36.133Z,-96
2017-01-11T14:35:36.099Z,-96
2017-01-11T14:36:37.084Z,-96
2017-01-11T14:37:36.078Z,-96
2017-01-11T14:38:36.196Z,-96
2017-01-11T14:39:36.237Z,-96
2017-01-11T14:40:37.954Z,-96
2017-01-11T14:41:36.097Z,-96
2017-01-11T14:42:36.107Z,-96
2017-01-11T14:43:36.217Z,-95
2017-01-11T14:44:36.401Z,-96
2017-01-11T14:45:36.177Z,-96
2017-01-11T14:46:36.068Z,-96
2017-01-11T14:47:36.100Z,-96
2017-01-11T14:48:36.195Z,-96
2017-01-11T14:49:36.200Z,-96
2017-01-11T14:50:36.305Z,-96
2017-01-11T14:51:36.120Z,-96
2017-01-11T14:52:36.067Z,-95
2017-01-11T14:53:36.227Z,-95
2017-01-11T14:54:36.181Z,-95
2017-01-11T14:55:36.259Z,-96
2017-01-11T14:56:36.561Z,-96
2017-01-11T14:57:36.103Z,-96
2017-01-11T14:58:36.256Z,-96
2017-01-11T14:59:38.323Z,-96
2017-01-11T15:00:36.533Z,-96
2017-01-11T15:01:36.243Z,-94
2017-01-11T15:02:36.300Z,-94
2017-01-11T15:03:37.327Z,-95
2017-01-11T15:04:36.208Z,-94
2017-01-11T15:05:36.161Z,-95
2017-01-11T15:06:36.358Z,-95
2017-01-11T15:07:36.300Z,-94
2017-01-11T15:08:36.230Z,-94
2017-01-11T15:09:36.368Z,-94
2017-01-11T15:10:36.242Z,-94
2017-01-11T15:11:36.450Z,-94
2017-01-11T15:12:36.199Z,-95
2017-01-11T15:13:36.359Z,-94
2017-01-11T15:14:36.937Z,-95
2017-01-11T15:15:36.236Z,-94
2017-01-11T15:16:36.362Z,-93
2017-01-11T15:17:36.727Z,-94
2017-01-11T15:18:36.174Z,-94
2017-01-11T15:19:36.231Z,-94
2017-01-11T15:20:36.294Z,-94
2017-01-11T15:21:36.251Z,-94
2017-01-11T15:22:36.206Z,-94
2017-01-11T15:23:36.243Z,-94
2017-01-11T15:24:36.347Z,-93
2017-01-11T15:25:36.372Z,-93
2017-01-11T15:26:36.213Z,-95
2017-01-11T15:27:36.203Z,-94
2017-01-11T15:28:36.189Z,-93
2017-01-11T15:29:36.131Z,-94
2017-01-11T15:30:36.158Z,-94
2017-01-11T15:31:36.206Z,-93
2017-01-11T15:32:36.440Z,-94
2017-01-11T15:33:36.182Z,-93
2017-01-11T15:34:36.189Z,-94
2017-01-11T15:35:36.698Z,-94
2017-01-11T15:36:36.153Z,-94
2017-01-11T15:37:36.145Z,-94
2017-01-11T15:38:36.388Z,-94
2017-01-11T15:39:36.358Z,-95
2017-01-11T15:40:36.274Z,-94
2017-01-11T15:41:36.283Z,-95
2017-01-11T15:42:36.990Z,-95